createdAt,value
2017-09-14T00:01:34.542Z,14.00
2017-09-14T00:04:02.866Z,14.03
2017-09-14T00:06:31.180Z,14.13
2017-09-14T00:08:59.525Z,14.16
2017-09-14T00:11:27.838Z,14.19
2017-09-14T00:13:56.186Z,14.13
2017-09-14T00:16:24.499Z,14.21
2017-09-14T00:18:52.842Z,14.13
2017-09-14T00:21:21.154Z,14.29
2017-09-14T00:23:49.499Z,14.29
2017-09-14T00:26:17.814Z,14.29
2017-09-14T00:28:46.175Z,14.29
2017-09-14T00:31:14.494Z,14.28
2017-09-14T00:33:42.836Z,14.30
2017-09-14T00:36:11.150Z,14.39
2017-09-14T00:38:39.466Z,14.30
2017-09-14T00:41:07.806Z,14.38
2017-09-14T00:43:36.129Z,14.18
2017-09-14T00:46:04.477Z,14.32
2017-09-14T00:48:32.795Z,14.29
2017-09-14T00:51:01.111Z,14.20
2017-09-14T00:53:29.496Z,13.92
2017-09-14T00:55:57.810Z,13.91
2017-09-14T00:58:26.918Z,14.09
2017-09-14T01:00:56.008Z,13.81
2017-09-14T01:03:25.093Z,13.88
2017-09-14T01:05:53.442Z,13.94
2017-09-14T01:08:21.754Z,13.91
2017-09-14T01:10:50.858Z,13.88
2017-09-14T01:13:19.942Z,13.90
2017-09-14T01:15:49.031Z,13.58
2017-09-14T01:18:17.375Z,13.77
2017-09-14T01:20:45.692Z,13.59
2017-09-14T01:23:14.032Z,13.71
2017-09-14T01:25:42.348Z,13.75
2017-09-14T01:28:10.670Z,13.80
2017-09-14T01:30:39.014Z,13.76
2017-09-14T01:33:07.334Z,13.69
2017-09-14T01:35:35.680Z,13.71
2017-09-14T01:38:04.762Z,13.83
2017-09-14T01:40:33.089Z,13.87
2017-09-14T01:58:18.942Z,13.65
2017-09-14T02:00:47.285Z,13.70
2017-09-14T02:03:15.598Z,13.84
2017-09-14T02:05:43.941Z,13.63
2017-09-14T02:08:12.263Z,13.88
2017-09-14T02:10:40.580Z,13.84
2017-09-14T02:13:08.925Z,14.01
2017-09-14T02:15:37.238Z,13.94
2017-09-14T02:18:06.346Z,13.76
2017-09-14T02:20:34.663Z,13.86
2017-09-14T02:23:03.002Z,13.75
2017-09-14T02:25:31.320Z,13.51
2017-09-14T02:27:59.634Z,13.48
2017-09-14T02:30:28.755Z,13.47
2017-09-14T02:32:57.071Z,13.49
2017-09-14T02:35:25.415Z,13.40
2017-09-14T02:37:53.731Z,13.48
2017-09-14T02:40:22.863Z,13.65
2017-09-14T02:42:51.282Z,13.64
2017-09-14T02:45:19.599Z,13.58
2017-09-14T02:47:48.706Z,13.39
2017-09-14T02:50:17.032Z,13.46
2017-09-14T02:52:45.351Z,13.35
2017-09-14T02:55:13.695Z,13.40
2017-09-14T02:57:42.011Z,13.42
2017-09-14T03:00:10.355Z,13.52
2017-09-14T03:02:38.677Z,13.49
2017-09-14T03:05:07.014Z,13.47
2017-09-14T03:07:35.358Z,13.54
2017-09-14T03:10:03.685Z,13.41
2017-09-14T03:12:32.022Z,13.33
2017-09-14T03:15:00.345Z,13.25
2017-09-14T03:17:28.697Z,13.27
2017-09-14T03:19:57.783Z,13.37
2017-09-14T03:22:26.899Z,13.29
2017-09-14T03:24:56.008Z,13.34
2017-09-14T03:27:24.349Z,13.43
2017-09-14T03:29:52.690Z,13.41
2017-09-14T03:32:21.009Z,13.64
2017-09-14T03:34:49.351Z,13.77
2017-09-14T03:37:17.666Z,13.76
2017-09-14T03:39:45.982Z,13.69
2017-09-14T03:42:14.321Z,13.87
2017-09-14T03:44:43.427Z,13.81
2017-09-14T03:47:11.770Z,13.70
2017-09-14T03:49:40.091Z,13.54
2017-09-14T03:52:08.422Z,13.63
2017-09-14T03:54:36.761Z,13.50
2017-09-14T03:57:05.838Z,13.69
2017-09-14T03:59:34.175Z,13.69
2017-09-14T04:02:02.495Z,13.62
2017-09-14T04:04:30.822Z,13.60
2017-09-14T04:06:59.166Z,13.64
2017-09-14T04:09:27.489Z,13.60
2017-09-14T04:11:55.835Z,13.62
2017-09-14T04:14:24.914Z,13.54
2017-09-14T04:16:53.271Z,13.48
2017-09-14T04:19:21.586Z,13.57
2017-09-14T04:21:50.674Z,13.52
2017-09-14T04:24:19.018Z,13.67
2017-09-14T04:26:47.334Z,13.81
2017-09-14T04:29:15.990Z,13.93
2017-09-14T04:31:44.495Z,13.86
2017-09-14T04:34:12.866Z,13.87
2017-09-14T04:36:41.186Z,13.88
2017-09-14T04:39:10.274Z,13.86
2017-09-14T04:41:39.394Z,13.79
2017-09-14T04:44:07.713Z,13.74
2017-09-14T04:46:36.054Z,13.61
2017-09-14T04:49:04.378Z,13.80
2017-09-14T04:51:32.695Z,13.75
2017-09-14T04:54:01.803Z,13.96
2017-09-14T04:56:30.894Z,13.86
2017-09-14T04:59:00.018Z,13.83
2017-09-14T05:01:28.333Z,13.88
2017-09-14T05:03:56.690Z,13.82
2017-09-14T05:06:25.016Z,13.89
2017-09-14T05:08:53.345Z,13.97
2017-09-14T05:11:21.690Z,13.94
2017-09-14T05:13:50.785Z,13.94
2017-09-14T05:16:19.895Z,13.89
2017-09-14T05:18:48.978Z,13.92
2017-09-14T05:21:18.094Z,13.96
2017-09-14T05:23:47.178Z,13.76
2017-09-14T05:26:16.261Z,13.78
2017-09-14T05:28:44.606Z,13.76
2017-09-14T05:31:12.944Z,13.70
2017-09-14T05:33:42.054Z,13.63
2017-09-14T05:36:10.367Z,13.69
2017-09-14T05:38:39.458Z,13.68
2017-09-14T05:41:07.798Z,13.61
2017-09-14T05:43:36.887Z,13.61
2017-09-14T05:46:06.013Z,13.58
2017-09-14T05:48:34.932Z,13.51
2017-09-14T05:51:03.274Z,13.47
2017-09-14T05:53:31.743Z,13.23
2017-09-14T05:56:00.829Z,13.16
2017-09-14T05:58:29.193Z,13.20
2017-09-14T06:00:57.515Z,13.22
2017-09-14T06:03:25.866Z,13.30
2017-09-14T06:05:54.207Z,13.25
2017-09-14T06:08:22.527Z,13.25
2017-09-14T06:10:50.891Z,13.13
2017-09-14T06:13:19.206Z,13.13
2017-09-14T06:15:48.330Z,13.06
2017-09-14T06:18:16.643Z,13.08
2017-09-14T06:20:44.990Z,13.08
2017-09-14T06:23:13.344Z,13.05
2017-09-14T06:25:42.436Z,13.10
2017-09-14T06:28:11.542Z,12.92
2017-09-14T06:30:40.636Z,12.97
2017-09-14T06:33:09.744Z,13.09
2017-09-14T06:35:38.070Z,12.99
2017-09-14T06:38:06.431Z,12.84
2017-09-14T06:40:34.811Z,12.89
2017-09-14T06:43:03.145Z,12.68
2017-09-14T06:45:32.263Z,12.66
2017-09-14T06:48:00.579Z,12.74
2017-09-14T06:50:28.927Z,12.93
2017-09-14T06:52:57.256Z,12.95
2017-09-14T06:55:25.594Z,13.01
2017-09-14T06:57:53.970Z,12.95
2017-09-14T07:00:22.298Z,12.93
2017-09-14T07:02:50.647Z,12.99
2017-09-14T07:05:18.975Z,13.10
2017-09-14T07:07:47.316Z,13.32
2017-09-14T07:10:15.646Z,13.24
2017-09-14T07:12:44.018Z,13.26
2017-09-14T07:15:12.379Z,13.40
2017-09-14T07:17:40.702Z,13.51
2017-09-14T07:20:09.051Z,13.39
2017-09-14T07:22:37.367Z,13.48
2017-09-14T07:25:05.686Z,13.54
2017-09-14T07:27:34.058Z,13.41
2017-09-14T07:30:02.375Z,13.32
2017-09-14T07:32:30.722Z,13.13
2017-09-14T07:34:59.055Z,13.10
2017-09-14T07:37:28.137Z,13.06
2017-09-14T07:39:56.482Z,13.29
2017-09-14T07:42:24.839Z,13.38
2017-09-14T07:44:53.194Z,13.42
2017-09-14T07:47:22.282Z,13.44
2017-09-14T07:49:51.427Z,13.43
2017-09-14T07:52:19.754Z,13.48
2017-09-14T07:54:48.868Z,13.45
2017-09-14T07:57:18.000Z,13.14
2017-09-14T07:59:46.346Z,13.21
2017-09-14T08:02:15.469Z,13.11
2017-09-14T08:04:43.787Z,13.33
2017-09-14T08:07:12.138Z,13.33
2017-09-14T08:09:40.461Z,13.27
2017-09-14T08:12:08.781Z,13.15
2017-09-14T08:14:37.131Z,13.23
2017-09-14T08:17:06.240Z,12.83
2017-09-14T08:19:35.355Z,12.98
2017-09-14T08:22:03.706Z,13.00
2017-09-14T08:24:32.803Z,12.96
2017-09-14T08:27:01.912Z,12.86
2017-09-14T08:29:31.025Z,13.02
2017-09-14T08:31:59.366Z,12.93
2017-09-14T08:34:27.692Z,13.07
2017-09-14T08:36:56.011Z,13.17
2017-09-14T08:39:24.360Z,12.83
2017-09-14T08:41:52.682Z,12.97
2017-09-14T08:44:21.053Z,12.83
2017-09-14T08:46:49.371Z,12.73
2017-09-14T08:49:18.482Z,12.65
2017-09-14T08:51:46.807Z,12.51
2017-09-14T08:54:15.128Z,12.20
2017-09-14T08:56:44.234Z,12.28
2017-09-14T08:59:12.554Z,12.25
2017-09-14T09:01:40.907Z,12.34
2017-09-14T09:04:09.235Z,12.40
2017-09-14T09:06:37.579Z,12.27
2017-09-14T09:09:05.899Z,12.34
2017-09-14T09:11:34.226Z,12.41
2017-09-14T09:14:02.570Z,12.37
2017-09-14T09:16:31.666Z,12.47
2017-09-14T09:19:00.791Z,12.61
2017-09-14T09:21:29.131Z,12.48
2017-09-14T09:23:57.468Z,12.67
2017-09-14T09:26:25.815Z,12.89
2017-09-14T09:28:54.911Z,12.99
2017-09-14T09:31:24.016Z,13.24
2017-09-14T09:33:53.102Z,13.46
2017-09-14T09:36:22.215Z,13.44
2017-09-14T09:38:51.302Z,13.29
2017-09-14T09:41:20.440Z,13.36
2017-09-14T09:43:48.781Z,13.82
2017-09-14T09:46:17.869Z,14.21
2017-09-14T09:48:46.211Z,13.85
2017-09-14T09:51:14.536Z,13.62
2017-09-14T09:53:43.657Z,13.55
2017-09-14T09:56:11.982Z,13.39
2017-09-14T09:58:40.300Z,13.29
2017-09-14T10:01:09.422Z,13.20
2017-09-14T10:03:37.735Z,13.37
2017-09-14T10:06:06.079Z,13.50
2017-09-14T10:08:34.394Z,13.76
2017-09-14T10:11:02.710Z,14.26
2017-09-14T10:13:31.110Z,14.73
2017-09-14T10:15:59.461Z,14.90
2017-09-14T10:18:27.867Z,15.35
2017-09-14T10:20:56.207Z,14.90
2017-09-14T10:23:24.558Z,14.43
2017-09-14T10:25:52.934Z,13.96
2017-09-14T10:28:21.279Z,13.92
2017-09-14T10:30:50.398Z,13.74
2017-09-14T10:33:18.721Z,13.85
2017-09-14T10:35:47.079Z,13.79
2017-09-14T10:38:15.408Z,13.77
2017-09-14T10:40:44.563Z,13.59
2017-09-14T10:43:12.904Z,13.70
2017-09-14T10:45:42.019Z,13.62
2017-09-14T10:48:10.381Z,13.99
2017-09-14T10:50:38.746Z,14.10
2017-09-14T10:53:07.084Z,14.26
2017-09-14T10:55:35.452Z,14.45
2017-09-14T10:58:03.787Z,14.57
2017-09-14T11:00:32.898Z,14.60
2017-09-14T11:03:02.011Z,14.57
2017-09-14T11:05:30.356Z,14.34
2017-09-14T11:07:58.693Z,14.83
2017-09-14T11:10:27.022Z,14.86
2017-09-14T11:12:56.146Z,14.64
2017-09-14T11:15:24.479Z,14.33
2017-09-14T11:17:52.827Z,14.00
2017-09-14T11:20:21.143Z,13.89
2017-09-14T11:22:49.464Z,13.96
2017-09-14T11:25:17.818Z,13.82
2017-09-14T11:27:46.908Z,13.53
2017-09-14T11:30:15.276Z,13.82
2017-09-14T11:32:43.612Z,14.04
2017-09-14T11:35:11.959Z,14.28
2017-09-14T11:37:41.041Z,14.26
2017-09-14T11:40:09.366Z,14.20
2017-09-14T11:42:37.733Z,14.54
2017-09-14T11:45:06.068Z,14.74
2017-09-14T11:47:34.427Z,14.97
2017-09-14T11:50:02.754Z,15.15
2017-09-14T11:52:31.876Z,15.31
2017-09-14T11:55:00.197Z,15.60
2017-09-14T11:57:28.514Z,15.81
2017-09-14T11:59:57.634Z,15.46
2017-09-14T12:02:25.952Z,15.11
2017-09-14T12:04:54.303Z,15.18
2017-09-14T12:07:22.657Z,15.16
2017-09-14T12:09:51.751Z,15.11
2017-09-14T12:12:20.867Z,14.83
2017-09-14T12:14:49.182Z,14.05
2017-09-14T12:17:17.531Z,13.11
2017-09-14T12:19:45.859Z,12.76
2017-09-14T12:22:14.214Z,13.06
2017-09-14T12:24:42.542Z,13.55
2017-09-14T12:27:11.638Z,13.84
2017-09-14T12:29:40.773Z,14.39
2017-09-14T12:32:09.102Z,14.87
2017-09-14T12:34:37.446Z,15.05
2017-09-14T12:37:05.763Z,15.29
2017-09-14T12:39:34.108Z,15.56
2017-09-14T12:42:02.430Z,15.75
2017-09-14T12:44:30.758Z,15.47
2017-09-14T12:46:59.102Z,14.79
2017-09-14T12:49:28.247Z,14.02
2017-09-14T12:51:56.591Z,13.84
2017-09-14T12:54:25.682Z,13.72
2017-09-14T12:56:54.771Z,13.43
2017-09-14T12:59:23.112Z,13.36
2017-09-14T13:01:51.439Z,13.30
2017-09-14T13:04:20.562Z,13.41
2017-09-14T13:06:48.886Z,13.84
2017-09-14T13:09:17.203Z,14.38
2017-09-14T13:11:46.337Z,15.26
2017-09-14T13:14:14.660Z,15.80
2017-09-14T13:16:43.002Z,16.33
2017-09-14T13:19:11.328Z,15.93
2017-09-14T13:21:40.445Z,15.45
2017-09-14T13:24:09.530Z,14.98
2017-09-14T13:26:38.633Z,15.22
2017-09-14T13:29:07.759Z,16.18
2017-09-14T13:31:36.074Z,17.16
2017-09-14T13:34:04.420Z,17.01
2017-09-14T13:36:32.739Z,17.57
2017-09-14T13:39:01.099Z,18.00
2017-09-14T13:41:29.419Z,18.26
2017-09-14T13:43:58.506Z,18.47
2017-09-14T13:46:26.858Z,18.44
2017-09-14T13:48:55.196Z,18.96
2017-09-14T13:51:24.323Z,18.74
2017-09-14T13:53:52.658Z,18.49
2017-09-14T13:56:21.762Z,19.02
2017-09-14T13:58:50.899Z,19.72
2017-09-14T14:01:19.235Z,20.06
2017-09-14T14:03:48.358Z,20.26
2017-09-14T14:06:16.682Z,18.10
2017-09-14T14:08:45.038Z,17.10
2017-09-14T14:11:13.409Z,18.34
2017-09-14T14:13:41.742Z,19.07
2017-09-14T14:16:10.119Z,19.54
2017-09-14T14:18:38.451Z,18.87
2017-09-14T14:21:06.788Z,16.58
2017-09-14T14:23:35.925Z,15.70
2017-09-14T14:26:04.242Z,13.90
2017-09-14T14:28:32.602Z,14.03
2017-09-14T14:31:00.956Z,13.39
2017-09-14T14:33:29.286Z,13.92
2017-09-14T14:35:57.643Z,14.35
2017-09-14T14:38:25.993Z,14.47
2017-09-14T14:40:54.338Z,15.17
2017-09-14T14:43:22.672Z,16.55
2017-09-14T14:45:51.029Z,16.94
2017-09-14T14:48:19.399Z,16.59
2017-09-14T14:50:48.492Z,16.38
2017-09-14T14:53:17.629Z,15.95
2017-09-14T14:55:45.954Z,16.17
2017-09-14T14:58:14.291Z,16.31
2017-09-14T15:00:42.649Z,15.59
2017-09-14T15:03:10.975Z,15.00
2017-09-14T15:05:39.327Z,14.46
2017-09-14T15:08:07.667Z,14.12
2017-09-14T15:10:36.791Z,14.13
2017-09-14T15:13:05.135Z,13.68
2017-09-14T15:15:33.456Z,14.03
2017-09-14T15:18:01.808Z,13.86
2017-09-14T15:20:30.900Z,14.06
2017-09-14T15:22:59.252Z,14.06
2017-09-14T15:25:27.581Z,13.64
2017-09-14T15:27:56.707Z,13.54
2017-09-14T15:30:25.040Z,13.68
2017-09-14T15:32:54.156Z,13.23
2017-09-14T15:35:22.533Z,12.72
2017-09-14T15:37:53.658Z,12.64
2017-09-14T15:40:27.351Z,12.46
2017-09-14T15:43:01.226Z,12.38
2017-09-14T15:45:34.929Z,12.50
2017-09-14T15:48:04.143Z,12.45
2017-09-14T15:50:38.124Z,12.44
2017-09-14T15:53:06.448Z,12.42
2017-09-14T15:55:34.767Z,12.38
2017-09-14T15:58:03.890Z,12.22
2017-09-14T16:00:32.250Z,12.12
2017-09-14T16:03:01.373Z,12.06
2017-09-14T16:05:29.695Z,12.10
2017-09-14T16:07:58.012Z,12.17
2017-09-14T16:10:27.124Z,12.14
2017-09-14T16:12:55.452Z,12.03
2017-09-14T16:15:23.810Z,12.11
2017-09-14T16:17:52.126Z,12.15
2017-09-14T16:20:20.447Z,12.28
2017-09-14T16:22:48.782Z,12.00
2017-09-14T16:25:17.099Z,11.88
2017-09-14T16:27:45.474Z,12.01
2017-09-14T16:30:13.794Z,11.99
2017-09-14T16:32:42.111Z,11.69
2017-09-14T16:35:11.223Z,11.76
2017-09-14T16:37:40.303Z,11.82
2017-09-14T16:40:09.424Z,11.87
2017-09-14T16:42:37.749Z,11.81
2017-09-14T16:45:06.071Z,11.79
2017-09-14T16:47:35.175Z,11.84
2017-09-14T16:50:04.268Z,11.67
2017-09-14T16:52:33.392Z,11.54
2017-09-14T16:55:01.719Z,11.53
2017-09-14T16:57:30.062Z,11.38
2017-09-14T16:59:58.407Z,11.41
2017-09-14T17:02:27.493Z,11.33
2017-09-14T17:04:56.612Z,11.23
2017-09-14T17:07:24.935Z,11.03
2017-09-14T17:09:53.246Z,10.91
2017-09-14T17:12:21.594Z,10.67
2017-09-14T17:14:49.928Z,10.57
2017-09-14T17:17:19.054Z,10.41
2017-09-14T17:19:47.378Z,10.15
2017-09-14T17:22:15.742Z,10.21
2017-09-14T17:24:44.063Z,10.29
2017-09-14T17:27:13.143Z,10.21
2017-09-14T17:29:41.482Z,10.15
2017-09-14T17:32:09.807Z,10.10
2017-09-14T17:34:38.918Z,10.14
2017-09-14T17:37:08.002Z,10.08
2017-09-14T17:39:37.116Z,10.26
2017-09-14T17:42:06.197Z,10.08
2017-09-14T17:44:35.302Z,10.20
2017-09-14T17:47:04.414Z,10.21
2017-09-14T17:49:32.738Z,10.17
2017-09-14T17:52:01.085Z,10.00
2017-09-14T17:54:29.400Z,10.08
2017-09-14T17:56:57.727Z,10.16
2017-09-14T17:59:26.839Z,10.04
2017-09-14T18:01:55.165Z,10.15
2017-09-14T18:04:23.536Z,10.24
2017-09-14T18:06:51.846Z,10.06
2017-09-14T18:09:20.173Z,10.03
2017-09-14T18:11:48.514Z,10.10
2017-09-14T18:14:17.595Z,10.17
2017-09-14T18:16:45.944Z,10.18
2017-09-14T18:19:14.269Z,10.27
2017-09-14T18:21:43.395Z,10.25
2017-09-14T18:24:11.734Z,10.31
2017-09-14T18:26:40.060Z,10.33
2017-09-14T18:29:08.405Z,10.22
2017-09-14T18:31:37.486Z,10.18
2017-09-14T18:34:05.826Z,10.36
2017-09-14T18:36:34.138Z,10.56
2017-09-14T18:39:02.485Z,10.42
2017-09-14T18:41:30.803Z,10.44
2017-09-14T18:43:59.123Z,10.35
2017-09-14T18:46:27.462Z,10.44
2017-09-14T18:48:55.778Z,10.41
2017-09-14T18:51:24.914Z,10.54
2017-09-14T18:53:53.238Z,10.42
2017-09-14T18:56:21.555Z,10.48
2017-09-14T18:58:49.905Z,10.50
2017-09-14T19:01:18.992Z,10.37
2017-09-14T19:03:47.343Z,10.56
2017-09-14T19:06:15.681Z,10.64
2017-09-14T19:08:44.028Z,10.47
2017-09-14T19:11:13.177Z,10.69
2017-09-14T19:13:41.523Z,10.51
2017-09-14T19:16:09.873Z,10.59
2017-09-14T19:18:38.219Z,10.54
2017-09-14T19:21:06.534Z,10.58
2017-09-14T19:23:34.851Z,10.57
2017-09-14T19:26:03.975Z,10.61
2017-09-14T19:28:32.293Z,10.70
2017-09-14T19:31:00.617Z,10.79
2017-09-14T19:33:28.959Z,10.86
2017-09-14T19:35:57.276Z,10.90
2017-09-14T19:38:26.500Z,10.90
2017-09-14T19:40:54.867Z,10.89
2017-09-14T19:43:23.178Z,10.83
2017-09-14T19:45:51.579Z,10.93
2017-09-14T19:48:19.930Z,10.87
2017-09-14T19:50:48.263Z,10.84
2017-09-14T19:53:17.406Z,10.93
2017-09-14T19:55:45.761Z,10.92
2017-09-14T19:58:14.094Z,11.06
2017-09-14T20:00:42.562Z,11.01
2017-09-14T20:03:10.928Z,11.01
2017-09-14T20:05:39.270Z,11.07
2017-09-14T20:08:08.485Z,10.94
2017-09-14T20:10:36.842Z,10.95
2017-09-14T20:13:05.942Z,11.06
2017-09-14T20:15:35.067Z,11.09
2017-09-14T20:18:03.868Z,11.04
2017-09-14T20:20:32.736Z,11.05
2017-09-14T20:23:02.269Z,11.09
2017-09-14T20:25:30.675Z,11.19
2017-09-14T20:27:59.062Z,11.15
2017-09-14T20:30:27.415Z,11.24
2017-09-14T20:32:55.791Z,11.22
2017-09-14T20:35:24.274Z,11.41
2017-09-14T20:37:53.007Z,11.39
2017-09-14T20:40:21.691Z,11.41
2017-09-14T20:42:50.113Z,11.26
2017-09-14T20:45:18.461Z,11.32
2017-09-14T20:47:46.782Z,11.55
2017-09-14T20:50:15.100Z,11.59
2017-09-14T20:52:43.529Z,11.47
2017-09-14T20:55:11.904Z,11.60
2017-09-14T20:57:40.997Z,11.80
2017-09-14T21:00:10.105Z,11.73
2017-09-14T21:02:38.458Z,11.61
2017-09-14T21:05:06.796Z,11.71
2017-09-14T21:07:35.151Z,11.70
2017-09-14T21:10:03.495Z,11.76
2017-09-14T21:12:31.810Z,11.73
2017-09-14T21:15:00.156Z,11.79
2017-09-14T21:17:28.471Z,11.68
2017-09-14T21:19:56.794Z,11.88
2017-09-14T21:22:25.197Z,11.88
2017-09-14T21:24:53.528Z,11.99
2017-09-14T21:27:21.892Z,11.99
2017-09-14T21:29:50.239Z,12.09
2017-09-14T21:32:18.559Z,12.13
2017-09-14T21:34:46.899Z,12.17
2017-09-14T21:37:15.250Z,12.16
2017-09-14T21:39:43.567Z,12.04
2017-09-14T21:42:12.650Z,12.19
2017-09-14T21:44:41.035Z,12.15
2017-09-14T21:47:10.130Z,12.17
2017-09-14T21:49:38.447Z,12.21
2017-09-14T21:52:06.795Z,12.22
2017-09-14T21:54:35.119Z,12.28
2017-09-14T21:57:03.458Z,12.18
2017-09-14T21:59:31.802Z,12.25
2017-09-14T22:02:00.119Z,12.33
2017-09-14T22:04:29.206Z,12.36
2017-09-14T22:06:57.554Z,12.45
2017-09-14T22:09:25.871Z,12.54
2017-09-14T22:11:54.222Z,12.41
2017-09-14T22:14:22.579Z,12.41
2017-09-14T22:16:50.899Z,12.49
2017-09-14T22:19:19.228Z,12.38
2017-09-14T22:21:47.571Z,12.23
2017-09-14T22:24:15.902Z,12.40
2017-09-14T22:26:44.242Z,12.50
2017-09-14T22:29:13.371Z,12.50
2017-09-14T22:31:41.852Z,12.64
2017-09-14T22:34:10.303Z,12.64
2017-09-14T22:36:39.304Z,12.71
2017-09-14T22:39:08.570Z,12.53
2017-09-14T22:41:37.010Z,12.39
2017-09-14T22:44:05.508Z,12.50
2017-09-14T22:46:34.024Z,12.61
2017-09-14T22:49:02.363Z,12.51
2017-09-14T22:51:30.727Z,12.60
2017-09-14T22:53:59.814Z,12.66
2017-09-14T22:56:28.903Z,12.55
2017-09-14T22:58:58.019Z,12.52
2017-09-14T23:01:27.111Z,12.51
2017-09-14T23:03:56.195Z,12.36
2017-09-14T23:06:25.346Z,12.49
2017-09-14T23:08:53.658Z,12.38
2017-09-14T23:11:21.970Z,12.22
2017-09-14T23:13:51.078Z,12.35
2017-09-14T23:16:19.399Z,12.42
2017-09-14T23:18:47.719Z,12.60
2017-09-14T23:21:16.831Z,12.66
2017-09-14T23:23:45.911Z,12.79
2017-09-14T23:26:15.058Z,12.72
2017-09-14T23:28:43.399Z,12.78
2017-09-14T23:31:12.492Z,12.52
2017-09-14T23:33:41.585Z,12.57
2017-09-14T23:36:10.694Z,12.58
2017-09-14T23:38:39.774Z,12.68
2017-09-14T23:41:08.100Z,12.63
2017-09-14T23:43:36.462Z,12.72
2017-09-14T23:46:04.784Z,12.80
2017-09-14T23:48:33.101Z,12.62
2017-09-14T23:51:02.221Z,12.65
2017-09-14T23:53:30.538Z,12.68
2017-09-14T23:55:58.863Z,12.61
2017-09-14T23:58:27.970Z,12.73
